Time;durP1;ratioP1;P1;durP2;ratioP2;P2;SDS_P1;SDS_P2;PMS_P1;PMS_P2;Temp;Humidity;BMP_temperature;BMP_pressure;BME280_temperature;BME280_humidity;BME280_pressure;Samples;Min_cycle;Max_cycle;Signal;HPM_P1;HPM_P2
2022/01/27 00:02:42;;;;;;;56.99;26.94;;;;;;;;;;345476;152;857748;-57
2022/01/27 00:04:17;;;;;;;59.87;25.75;;;;;;;;;;344177;152;857463;-57
2022/01/27 00:04:40;;;;;;;58.08;25.44;;;;;;;;;;343225;149;859046;-57
2022/01/27 00:05:41;;;;;;;60.00;26.34;;;;;;;;;;349583;152;857302;-59
2022/01/27 00:06:42;;;;;;;60.58;26.70;;;;;;;;;;352800;149;859058;-57
2022/01/27 00:07:45;;;;;;;57.19;26.54;;;;;;;;;;353677;149;857225;-58
2022/01/27 00:08:54;;;;;;;58.53;26.42;;;;;;;;;;350473;149;864906;-58
2022/01/27 00:10:10;;;;;;;52.91;25.79;;;;;;;;;;354083;150;857414;-58
2022/01/27 00:11:09;;;;;;;55.48;25.09;;;;;;;;;;355906;148;857121;-60
2022/01/27 00:11:58;;;;;;;63.56;25.94;;;;;;;;;;356307;149;858858;-59
2022/01/27 00:13:00;;;;;;;57.04;26.61;;;;;;;;;;348606;153;857544;-57
2022/01/27 00:14:03;;;;;;;59.94;25.93;;;;;;;;;;353022;151;865936;-57
2022/01/27 00:15:10;;;;;;;59.65;27.35;;;;;;;;;;349951;152;859930;-59
2022/01/27 00:16:17;;;;;;;56.23;25.48;;;;;;;;;;358376;149;860800;-57
2022/01/27 00:17:27;;;;;;;55.43;26.44;;;;;;;;;;352823;149;857742;-57
2022/01/27 00:18:21;;;;;;;55.79;25.50;;;;;;;;;;354395;149;857418;-57
2022/01/27 00:19:23;;;;;;;57.71;25.97;;;;;;;;;;355521;149;864720;-59
2022/01/27 00:20:25;;;;;;;57.97;25.17;;;;;;;;;;355683;151;859382;-57
2022/01/27 00:21:27;;;;;;;51.66;24.53;;;;;;;;;;353326;149;859522;-57
2022/01/27 00:22:29;;;;;;;51.47;24.49;;;;;;;;;;356116;149;864958;-57
2022/01/27 00:23:30;;;;;;;53.04;24.30;;;;;;;;;;352948;150;866757;-59
2022/01/27 00:24:32;;;;;;;51.01;24.28;;;;;;;;;;354778;151;858117;-57
2022/01/27 00:25:33;;;;;;;56.36;26.46;;;;;;;;;;356953;149;865580;-57
2022/01/27 00:26:35;;;;;;;49.95;24.27;;;;;;;;;;356033;149;865590;-57
2022/01/27 00:27:36;;;;;;;55.65;25.15;;;;;;;;;;351788;150;859321;-57
2022/01/27 00:28:41;;;;;;;54.66;24.95;;;;;;;;;;352625;150;858636;-57
2022/01/27 00:29:42;;;;;;;51.19;23.86;;;;;;;;;;354585;149;858508;-57
2022/01/27 00:30:44;;;;;;;48.27;22.24;;;;;;;;;;353811;150;857258;-57
2022/01/27 00:31:45;;;;;;;46.36;22.45;;;;;;;;;;354866;150;865084;-55
2022/01/27 00:32:47;;;;;;;52.51;23.89;;;;;;;;;;353488;149;864990;-57
2022/01/27 00:33:49;;;;;;;51.18;23.06;;;;;;;;;;353658;150;861891;-60
2022/01/27 00:34:50;;;;;;;48.85;23.39;;;;;;;;;;352843;149;859436;-58
2022/01/27 00:35:52;;;;;;;52.65;23.41;;;;;;;;;;353835;149;858306;-57
2022/01/27 00:36:54;;;;;;;56.01;23.69;;;;;;;;;;354309;150;864854;-57
2022/01/27 00:37:55;;;;;;;48.87;23.78;;;;;;;;;;354121;149;864538;-57
2022/01/27 00:38:57;;;;;;;49.85;23.48;;;;;;;;;;354046;150;860738;-59
2022/01/27 00:39:58;;;;;;;55.89;24.92;;;;;;;;;;354380;149;857359;-57
2022/01/27 00:41:00;;;;;;;52.34;22.86;;;;;;;;;;354914;150;865524;-57
2022/01/27 00:42:01;;;;;;;50.61;23.21;;;;;;;;;;355109;150;863260;-57
2022/01/27 00:43:03;;;;;;;44.41;22.46;;;;;;;;;;355264;149;861092;-57
2022/01/27 00:44:05;;;;;;;49.61;23.67;;;;;;;;;;353088;149;865732;-58
2022/01/27 00:45:07;;;;;;;47.87;23.15;;;;;;;;;;353796;151;864911;-57
2022/01/27 00:46:14;;;;;;;44.78;20.58;;;;;;;-5.34;92.17;64650.84;353076;151;858651;-57
2022/01/27 00:47:13;;;;;;;37.99;18.92;;;;;;;;;;355184;149;865872;-57
2022/01/27 00:48:17;;;;;;;37.47;17.74;;;;;;;;;;353700;151;864960;-57
2022/01/27 00:49:18;;;;;;;41.63;19.93;;;;;;;;;;352888;151;866911;-58
2022/01/27 00:50:21;;;;;;;38.88;19.12;;;;;;;;;;354449;149;858304;-57
2022/01/27 00:51:25;;;;;;;38.49;19.78;;;;;;;;;;353818;150;857283;-57
2022/01/27 00:52:36;;;;;;;43.97;20.96;;;;;;;;;;354155;149;865562;-57
2022/01/27 00:54:45;;;;;;;44.42;20.42;;;;;;;;;;342665;154;859649;-58
2022/01/27 00:55:47;;;;;;;44.51;20.69;;;;;;;;;;354631;148;857371;-58
2022/01/27 00:56:56;;;;;;;43.16;20.66;;;;;;;;;;361359;146;857738;-58
2022/01/27 00:59:03;;;;;;;49.01;20.54;;;;;;;;;;359294;148;857215;-56
2022/01/27 01:00:01;;;;;;;43.50;20.52;;;;;;;;;;359399;148;866182;-59
2022/01/27 01:01:06;;;;;;;37.03;18.54;;;;;;;;;;360998;147;858288;-59
2022/01/27 01:02:18;;;;;;;44.63;19.43;;;;;;;;;;360259;148;860249;-59
2022/01/27 01:03:25;;;;;;;40.46;19.32;;;;;;;;;;359293;148;857695;-59
2022/01/27 01:04:25;;;;;;;41.63;20.17;;;;;;;;;;359159;147;857022;-59
2022/01/27 01:06:46;;;;;;;46.03;19.20;;;;;;;;;;358920;148;858010;-59
2022/01/27 01:07:49;;;;;;;41.98;19.48;;;;;;;;;;362866;147;860899;-60
2022/01/27 01:10:41;;;;;;;42.84;18.71;;;;;;;;;;360141;148;858939;-59
2022/01/27 01:15:09;;;;;;;42.68;18.22;;;;;;;;;;361997;146;859657;-57
2022/01/27 01:16:03;;;;;;;39.82;18.56;;;;;;;;;;360171;148;858952;-57
2022/01/27 01:17:31;;;;;;;37.76;17.32;;;;;;;;;;363084;148;867643;-59
2022/01/27 01:19:54;;;;;;;39.55;17.41;;;;;;;;;;361509;147;860662;-58
2022/01/27 01:20:59;;;;;;;39.86;18.65;;;;;;;;;;360347;148;859582;-57
2022/01/27 01:29:24;;;;;;;38.42;18.56;;;;;;;;;;357703;147;866310;-57
2022/01/27 01:30:08;;;;;;;39.59;17.15;;;;;;;;;;362353;147;858228;-58
2022/01/27 01:31:11;;;;;;;39.98;18.19;;;;;;;;;;356697;148;859214;-57
2022/01/27 01:33:06;;;;;;;41.57;18.72;;;;;;;;;;360987;148;858653;-57
2022/01/27 01:35:11;;;;;;;43.11;20.31;;;;;;;;;;358975;148;857706;-57
2022/01/27 01:36:27;;;;;;;44.63;20.49;;;;;;;;;;359790;147;858325;-59
2022/01/27 01:37:19;;;;;;;43.99;20.86;;;;;;;;;;361436;148;860650;-57
2022/01/27 01:38:21;;;;;;;45.84;20.54;;;;;;;;;;355501;150;857396;-57
2022/01/27 01:39:24;;;;;;;45.28;21.71;;;;;;;;;;353338;149;865070;-57
2022/01/27 01:40:26;;;;;;;45.09;21.41;;;;;;;;;;351830;149;857318;-58
2022/01/27 01:41:28;;;;;;;52.10;20.99;;;;;;;;;;352292;151;857210;-57
2022/01/27 01:42:31;;;;;;;45.39;20.51;;;;;;;;;;352986;149;857203;-55
2022/01/27 01:43:33;;;;;;;52.09;22.58;;;;;;;;;;354123;150;862370;-57
2022/01/27 01:44:34;;;;;;;47.44;20.68;;;;;;;;;;363034;147;857709;-59
2022/01/27 01:45:36;;;;;;;48.70;21.54;;;;;;;;;;361328;147;866846;-59
2022/01/27 01:46:37;;;;;;;43.90;19.69;;;;;;;;;;363659;146;865532;-57
2022/01/27 01:47:39;;;;;;;39.97;19.14;;;;;;;;;;356232;149;864865;-57
2022/01/27 01:48:41;;;;;;;39.56;18.44;;;;;;;;;;363819;147;865338;-57
2022/01/27 01:49:42;;;;;;;41.57;19.74;;;;;;;;;;364701;145;864705;-57
2022/01/27 01:50:44;;;;;;;43.96;19.29;;;;;;;;;;361859;146;859942;-57
2022/01/27 01:51:45;;;;;;;42.58;20.08;;;;;;;;;;364860;147;864832;-57
2022/01/27 01:52:47;;;;;;;45.63;20.18;;;;;;;;;;362625;147;860878;-58
2022/01/27 01:53:48;;;;;;;43.34;19.74;;;;;;;;;;363231;147;857277;-57
2022/01/27 01:54:50;;;;;;;43.91;18.66;;;;;;;;;;361849;147;864873;-57
2022/01/27 01:55:51;;;;;;;44.39;18.93;;;;;;;;;;364558;146;857361;-57
2022/01/27 01:56:53;;;;;;;41.37;19.74;;;;;;;;;;363406;146;867159;-60
2022/01/27 01:57:57;;;;;;;43.01;20.06;;;;;;;;;;361973;147;866730;-57
2022/01/27 01:58:58;;;;;;;38.23;18.81;;;;;;;;;;363439;147;865586;-57
2022/01/27 01:59:59;;;;;;;39.86;18.91;;;;;;;;;;363155;147;858177;-57
2022/01/27 02:01:01;;;;;;;44.15;18.88;;;;;;;;;;362495;146;865337;-58
2022/01/27 02:02:03;;;;;;;43.05;19.20;;;;;;;;;;361284;147;864754;-57
2022/01/27 02:03:04;;;;;;;44.21;19.50;;;;;;;;;;361392;147;860095;-57
2022/01/27 02:04:08;;;;;;;44.78;20.33;;;;;;;;;;357658;149;864661;-58
2022/01/27 02:05:09;;;;;;;41.96;19.32;;;;;;;;;;363847;147;864849;-58
2022/01/27 02:06:22;;;;;;;41.62;19.41;;;;;;;;;;362703;147;867107;-58
2022/01/27 02:07:28;;;;;;;44.24;19.78;;;;;;;;;;362757;147;858672;-57
2022/01/27 02:09:45;;;;;;;40.95;18.84;;;;;;;;;;365130;147;857249;-57
2022/01/27 02:17:49;;;;;;;42.16;18.92;;;;;;;;;;359758;147;864727;-58
2022/01/27 02:17:59;;;;;;;39.43;15.96;;;;;;;;;;363712;146;866104;-57
2022/01/27 02:18:08;;;;;;;31.54;14.69;;;;;;;;;;364010;146;857299;-58
2022/01/27 02:19:09;;;;;;;35.44;15.98;;;;;;;;;;364254;147;864803;-58
2022/01/27 02:20:11;;;;;;;41.03;16.25;;;;;;;;;;364469;147;857219;-58
2022/01/27 02:21:12;;;;;;;35.92;16.36;;;;;;;;;;363810;146;857777;-58
2022/01/27 02:22:15;;;;;;;36.43;16.03;;;;;;;;;;363420;146;865900;-58
2022/01/27 02:23:17;;;;;;;33.79;14.56;;;;;;;;;;363317;145;856504;-58
2022/01/27 02:24:19;;;;;;;34.09;15.16;;;;;;;;;;362635;147;856990;-58
2022/01/27 02:25:21;;;;;;;32.39;14.26;;;;;;;;;;357246;149;858981;-58
2022/01/27 02:26:23;;;;;;;35.53;16.12;;;;;;;;;;362149;147;859065;-58
2022/01/27 02:27:25;;;;;;;33.02;15.06;;;;;;;;;;361852;147;858965;-58
2022/01/27 02:28:26;;;;;;;32.31;14.54;;;;;;;;;;363255;146;858650;-58
2022/01/27 02:29:28;;;;;;;31.91;15.46;;;;;;;;;;362490;147;864899;-58
2022/01/27 02:30:30;;;;;;;32.27;15.16;;;;;;;;;;362550;147;864829;-57
2022/01/27 02:31:32;;;;;;;33.69;15.21;;;;;;;;;;364089;146;857203;-57
2022/01/27 02:32:33;;;;;;;31.64;14.79;;;;;;;;;;361943;146;866184;-59
2022/01/27 02:33:35;;;;;;;33.53;14.66;;;;;;;;;;363122;147;864998;-57
2022/01/27 02:34:36;;;;;;;30.23;14.16;;;;;;;;;;362993;147;866264;-57
2022/01/27 02:35:38;;;;;;;30.65;14.54;;;;;;;;;;363268;146;867128;-57
2022/01/27 02:36:39;;;;;;;31.91;14.17;;;;;;;;;;363889;147;865458;-60
2022/01/27 02:37:41;;;;;;;36.06;14.50;;;;;;;;;;365318;147;864963;-57
2022/01/27 02:38:42;;;;;;;28.92;14.06;;;;;;;;;;362965;146;862507;-59
2022/01/27 02:39:44;;;;;;;31.21;14.01;;;;;;;;;;362476;147;865014;-57
2022/01/27 02:40:51;;;;;;;34.81;14.43;;;;;;;;;;360394;147;860282;-60
2022/01/27 02:41:59;;;;;;;32.17;14.57;;;;;;;;;;364788;146;857948;-59
2022/01/27 02:43:02;;;;;;;27.98;14.02;;;;;;;;;;362251;146;857330;-58
2022/01/27 02:44:04;;;;;;;30.29;14.07;;;;;;;;;;362503;147;859535;-58
2022/01/27 02:45:10;;;;;;;28.39;14.11;;;;;;;;;;360209;147;865076;-58
2022/01/27 02:46:18;;;;;;;32.45;13.54;;;;;;;;;;360817;146;857947;-58
2022/01/27 02:47:21;;;;;;;32.82;14.38;;;;;;;;;;352425;150;859016;-58
2022/01/27 02:48:22;;;;;;;33.08;13.93;;;;;;;;;;347053;152;857377;-57
2022/01/27 02:49:24;;;;;;;43.73;19.17;;;;;;;;;;347587;152;857377;-57
2022/01/27 02:50:26;;;;;;;34.92;15.26;;;;;;;;;;345944;153;864822;-57
2022/01/27 02:51:27;;;;;;;36.05;14.37;;;;;;;;;;346489;154;857238;-58
2022/01/27 02:52:29;;;;;;;29.56;13.93;;;;;;;;;;349361;150;864959;-58
2022/01/27 02:53:30;;;;;;;35.71;15.76;;;;;;;;;;351380;151;864910;-57
2022/01/27 02:54:32;;;;;;;35.10;15.08;;;;;;;;;;351994;153;857243;-57
2022/01/27 02:55:33;;;;;;;35.90;15.06;;;;;;;;;;351798;151;863385;-57
2022/01/27 02:56:38;;;;;;;30.59;14.00;;;;;;;;;;350225;151;865902;-58
2022/01/27 02:57:39;;;;;;;28.99;13.52;;;;;;;;;;350955;152;865005;-56
2022/01/27 02:58:41;;;;;;;29.85;13.97;;;;;;;;;;350219;150;864962;-58
2022/01/27 02:59:42;;;;;;;30.61;13.48;;;;;;;;;;349831;151;857293;-57
2022/01/27 03:00:44;;;;;;;32.02;12.95;;;;;;;;;;351546;150;866624;-57
2022/01/27 03:01:46;;;;;;;30.42;12.36;;;;;;;;;;352274;151;865544;-57
2022/01/27 03:02:48;;;;;;;26.30;12.31;;;;;;;;;;346295;153;857994;-57
2022/01/27 03:03:50;;;;;;;27.92;12.79;;;;;;;;;;345183;153;859699;-56
2022/01/27 03:04:51;;;;;;;32.01;13.31;;;;;;;;;;350540;151;865246;-57
2022/01/27 03:05:53;;;;;;;27.11;12.69;;;;;;;;;;349859;151;864982;-59
2022/01/27 03:06:55;;;;;;;28.99;12.09;;;;;;;;;;351390;151;857434;-57
2022/01/27 03:07:56;;;;;;;32.59;13.33;;;;;;;;;;349348;151;865492;-57
2022/01/27 03:08:58;;;;;;;30.53;13.57;;;;;;;;;;349154;151;864995;-59
2022/01/27 03:09:59;;;;;;;35.13;13.49;;;;;;;;;;349843;151;857173;-59
2022/01/27 03:11:06;;;;;;;24.53;11.74;;;;;;;;;;350589;151;864944;-59
2022/01/27 03:12:08;;;;;;;24.69;10.99;;;;;;;;;;350142;151;868294;-57
2022/01/27 03:13:09;;;;;;;26.01;10.75;;;;;;;;;;349681;151;857303;-57
2022/01/27 03:14:11;;;;;;;23.63;10.94;;;;;;;;;;346441;153;860066;-59
2022/01/27 03:15:13;;;;;;;26.30;12.07;;;;;;;;;;346270;151;864828;-59
2022/01/27 03:16:16;;;;;;;26.23;12.07;;;;;;;;;;348581;152;857384;-59
2022/01/27 03:17:18;;;;;;;28.79;12.49;;;;;;;;;;346035;153;857379;-57
2022/01/27 03:18:20;;;;;;;26.90;11.35;;;;;;;;;;355106;150;865046;-58
2022/01/27 03:19:21;;;;;;;27.80;11.44;;;;;;;;;;350274;150;857410;-57
2022/01/27 03:20:31;;;;;;;23.83;11.45;;;;;;;;;;352319;150;859384;-57
2022/01/27 03:21:27;;;;;;;23.89;10.82;;;;;;;;;;345983;153;857737;-58
2022/01/27 03:22:28;;;;;;;24.33;11.37;;;;;;;;;;352398;150;858450;-57
2022/01/27 03:23:30;;;;;;;23.19;9.81;;;;;;;;;;351749;150;857305;-56
2022/01/27 03:24:31;;;;;;;32.70;13.99;;;;;;;;;;344945;152;858898;-56
2022/01/27 03:25:33;;;;;;;37.89;15.86;;;;;;;;;;346594;152;861395;-57
2022/01/27 03:26:35;;;;;;;29.35;13.25;;;;;;;;;;347136;153;864985;-58
2022/01/27 03:27:36;;;;;;;23.62;11.11;;;;;;;;;;344702;153;864947;-59
2022/01/27 03:28:38;;;;;;;23.42;11.96;;;;;;;;;;346838;153;866677;-58
2022/01/27 03:29:39;;;;;;;23.85;11.25;;;;;;;;;;346362;151;866563;-58
2022/01/27 03:30:41;;;;;;;26.64;11.63;;;;;;;;;;345803;151;861151;-56
2022/01/27 03:31:43;;;;;;;28.68;11.95;;;;;;;;;;346159;153;866973;-58
2022/01/27 03:32:45;;;;;;;24.43;11.39;;;;;;;;;;349662;151;863507;-60
2022/01/27 03:33:46;;;;;;;25.09;11.61;;;;;;;;;;347651;151;859042;-58
2022/01/27 03:34:48;;;;;;;24.11;11.41;;;;;;;;;;348013;152;864186;-57
2022/01/27 03:35:49;;;;;;;23.16;11.64;;;;;;;;;;347754;151;858465;-57
2022/01/27 03:36:51;;;;;;;22.29;11.16;;;;;;;;;;344686;152;858655;-58
2022/01/27 03:37:52;;;;;;;26.48;10.99;;;;;;;;;;351508;150;864810;-57
2022/01/27 03:38:54;;;;;;;24.56;11.01;;;;;;;;;;352227;150;860169;-55
2022/01/27 03:39:56;;;;;;;23.25;10.12;;;;;;;;;;346979;153;866249;-57
2022/01/27 03:40:58;;;;;;;22.21;10.26;;;;;;;;;;354291;150;857381;-56
2022/01/27 03:42:00;;;;;;;23.84;11.22;;;;;;;;;;352519;150;864544;-57
2022/01/27 03:43:05;;;;;;;22.88;10.60;;;;;;;;;;345926;154;857323;-57
2022/01/27 03:44:06;;;;;;;22.14;9.93;;;;;;;;;;346156;153;866692;-57
2022/01/27 03:45:08;;;;;;;19.21;10.39;;;;;;;;;;351425;150;865287;-57
2022/01/27 03:46:10;;;;;;;22.58;10.77;;;;;;;;;;362760;147;864748;-56
2022/01/27 03:47:11;;;;;;;21.44;11.24;;;;;;;;;;360872;147;860458;-56
2022/01/27 03:48:13;;;;;;;22.44;11.71;;;;;;;;;;362159;146;864924;-59
2022/01/27 03:49:14;;;;;;;25.42;11.01;;;;;;;;;;363566;146;857301;-59
2022/01/27 03:50:16;;;;;;;23.72;10.69;;;;;;;;;;361943;147;864866;-59
2022/01/27 03:51:18;;;;;;;22.42;10.64;;;;;;;;;;361258;147;857376;-58
2022/01/27 03:52:19;;;;;;;23.30;10.59;;;;;;;;;;361369;146;861590;-58
2022/01/27 03:53:21;;;;;;;22.99;10.84;;;;;;;;;;363537;147;860209;-59
2022/01/27 03:54:23;;;;;;;22.21;9.46;;;;;;;;;;363543;147;857373;-57
2022/01/27 03:55:24;;;;;;;22.71;9.52;;;;;;;;;;363114;146;857334;-59
2022/01/27 03:56:26;;;;;;;17.46;8.31;;;;;;;;;;363385;147;865323;-58
2022/01/27 03:57:28;;;;;;;22.39;9.08;;;;;;;;;;364301;145;859406;-59
2022/01/27 03:58:29;;;;;;;22.19;9.44;;;;;;;;;;362676;146;865261;-59
2022/01/27 03:59:31;;;;;;;18.94;9.13;;;;;;;;;;361337;147;858474;-59
2022/01/27 04:00:33;;;;;;;21.44;9.36;;;;;;;;;;364020;147;866182;-59
2022/01/27 04:01:35;;;;;;;20.83;9.43;;;;;;;;;;362822;147;865335;-58
2022/01/27 04:02:41;;;;;;;20.11;9.29;;;;;;;;;;361608;147;857157;-59
2022/01/27 04:03:41;;;;;;;25.56;10.26;;;;;;;;;;361708;147;857263;-55
2022/01/27 04:04:42;;;;;;;16.13;9.04;;;;;;;;;;363745;147;858915;-60
2022/01/27 04:05:51;;;;;;;18.91;9.79;;;;;;;;;;361958;146;857186;-59
2022/01/27 04:06:51;;;;;;;21.05;9.18;;;;;;;;;;361286;146;857311;-57
2022/01/27 04:07:56;;;;;;;17.34;9.39;;;;;;;;;;363478;147;863387;-58
2022/01/27 04:08:54;;;;;;;20.29;8.98;;;;;;;;;;361663;147;866794;-58
2022/01/27 04:09:56;;;;;;;17.54;9.65;;;;;;;;;;362618;146;857392;-57
2022/01/27 04:10:58;;;;;;;19.47;9.34;;;;;;;;;;363853;146;866721;-58
2022/01/27 04:11:59;;;;;;;22.09;9.92;;;;;;;;;;364582;147;866732;-57
2022/01/27 04:13:01;;;;;;;19.78;9.76;;;;;;;;;;362476;146;864486;-59
2022/01/27 04:14:03;;;;;;;17.59;8.63;;;;;;;;;;362766;146;866253;-57
2022/01/27 04:15:05;;;;;;;16.60;8.52;;;;;;;;;;364192;147;858643;-58
2022/01/27 04:16:07;;;;;;;16.61;8.21;;;;;;;;;;362921;147;865686;-58
2022/01/27 04:17:08;;;;;;;19.16;8.25;;;;;;;;;;363878;147;866708;-59
2022/01/27 04:18:10;;;;;;;16.04;8.13;;;;;;;;;;362680;147;867414;-59
2022/01/27 04:19:11;;;;;;;18.53;9.22;;;;;;;;;;363528;147;857508;-58
2022/01/27 04:20:14;;;;;;;18.49;8.29;;;;;;;;;;363094;146;865246;-56
2022/01/27 04:21:16;;;;;;;20.01;8.92;;;;;;;;;;364434;147;857361;-59
2022/01/27 04:22:17;;;;;;;18.60;9.46;;;;;;;;;;363354;146;856549;-59
2022/01/27 04:23:19;;;;;;;16.31;8.66;;;;;;;;;;361690;146;864240;-60
2022/01/27 04:24:21;;;;;;;16.97;9.02;;;;;;;;;;362390;146;864982;-59
2022/01/27 04:25:22;;;;;;;15.64;8.25;;;;;;;;;;363100;147;859658;-59
2022/01/27 04:26:44;;;;;;;16.90;8.31;;;;;;;;;;362030;147;860490;-59
2022/01/27 04:27:41;;;;;;;17.65;7.83;;;;;;;;;;361914;146;858301;-59
2022/01/27 04:28:43;;;;;;;17.55;7.47;;;;;;;;;;364173;147;857828;-59
2022/01/27 04:29:45;;;;;;;20.99;8.46;;;;;;;;;;363177;147;865509;-59
2022/01/27 04:30:47;;;;;;;16.50;7.48;;;;;;;;;;362413;146;865100;-58
2022/01/27 04:31:50;;;;;;;19.33;8.15;;;;;;;;;;363843;146;857773;-58
2022/01/27 04:33:02;;;;;;;16.32;8.16;;;;;;;;;;362400;147;857333;-59
2022/01/27 04:33:55;;;;;;;16.14;8.25;;;;;;;;;;362040;147;857321;-59
2022/01/27 04:35:02;;;;;;;17.00;7.96;;;;;;;;;;361493;146;857846;-59
2022/01/27 04:36:06;;;;;;;17.58;8.14;;;;;;;;;;362527;147;858071;-59
2022/01/27 04:37:05;;;;;;;14.34;7.66;;;;;;;;;;362439;146;857227;-59
2022/01/27 04:39:25;;;;;;;18.43;8.19;;;;;;;;;;363096;146;865835;-58
2022/01/27 04:40:25;;;;;;;19.20;7.86;;;;;;;;;;362784;146;858856;-58
2022/01/27 04:41:33;;;;;;;19.31;8.29;;;;;;;;;;361235;147;856410;-57
2022/01/27 04:45:00;;;;;;;16.56;7.72;;;;;;;;;;364323;146;865061;-58
2022/01/27 04:47:21;;;;;;;17.19;8.62;;;;;;;;;;361974;147;859965;-58
2022/01/27 04:48:20;;;;;;;15.95;7.72;;;;;;;;;;362082;146;856882;-58
2022/01/27 04:49:21;;;;;;;15.96;8.00;;;;;;;;;;363764;147;864698;-57
2022/01/27 04:50:23;;;;;;;13.71;8.27;;;;;;;;;;362633;147;858305;-57
2022/01/27 04:51:24;;;;;;;17.92;8.09;;;;;;;;;;362927;146;857434;-58
2022/01/27 04:52:29;;;;;;;16.71;8.04;;;;;;;;;;362547;146;866859;-60
2022/01/27 04:53:35;;;;;;;18.51;8.28;;;;;;;;;;363295;147;866695;-57
2022/01/27 04:55:21;;;;;;;15.16;7.71;;;;;;;;;;362842;145;857268;-56
2022/01/27 04:55:37;;;;;;;21.16;8.24;;;;;;;;;;348260;147;857529;-55
2022/01/27 04:56:40;;;;;;;13.71;7.68;;;;;;;;;;353801;141;856312;-58
2022/01/27 04:57:44;;;;;;;16.93;8.54;;;;;;;;;;343724;153;857855;-61
2022/01/27 04:58:48;;;;;;;19.87;8.66;;;;;;;;;;343342;153;857761;-57
2022/01/27 04:59:48;;;;;;;13.40;7.70;;;;;;;;;;343027;153;857306;-57
2022/01/27 05:00:52;;;;;;;19.15;8.66;;;;;;;;;;339233;156;857987;-57
2022/01/27 05:02:04;;;;;;;18.25;8.75;;;;;;;;;;336347;156;865217;-58
2022/01/27 05:03:12;;;;;;;18.04;8.21;;;;;;;;;;338907;156;858069;-59
2022/01/27 05:04:13;;;;;;;15.48;7.28;;;;;;;;;;336686;157;857251;-59
2022/01/27 05:05:12;;;;;;;17.42;7.92;;;;;;;;;;337220;156;864996;-57
2022/01/27 05:06:15;;;;;;;14.24;7.74;;;;;;;;;;337727;156;859571;-55
2022/01/27 05:07:17;;;;;;;16.45;7.88;;;;;;;;;;338463;156;857379;-56
2022/01/27 05:08:19;;;;;;;17.23;8.44;;;;;;;;;;337904;158;864919;-56
2022/01/27 05:09:23;;;;;;;17.13;7.94;;;;;;;;;;338259;156;864082;-55
2022/01/27 05:10:29;;;;;;;15.09;8.24;;;;;;;;;;338670;157;857528;-54
2022/01/27 05:11:39;;;;;;;16.89;7.96;;;;;;;;;;336831;157;858237;-56
2022/01/27 05:12:48;;;;;;;16.46;7.74;;;;;;;;;;336144;156;859027;-56
2022/01/27 05:13:50;;;;;;;15.83;7.78;;;;;;;;;;337323;157;857311;-56
2022/01/27 05:14:44;;;;;;;18.01;7.93;;;;;;;;;;337292;156;858408;-56
2022/01/27 05:15:46;;;;;;;16.81;7.68;;;;;;;;;;338089;156;858760;-57
2022/01/27 05:16:47;;;;;;;17.28;7.77;;;;;;;;;;337729;156;866897;-56
2022/01/27 05:17:51;;;;;;;14.19;7.64;;;;;;;;;;332008;159;866875;-55
2022/01/27 05:18:52;;;;;;;12.91;7.54;;;;;;;;;;333011;159;861265;-56
2022/01/27 05:19:54;;;;;;;13.04;7.71;;;;;;;;;;338483;155;857837;-57
2022/01/27 05:20:55;;;;;;;16.49;7.70;;;;;;;;;;337705;156;858962;-57
2022/01/27 05:21:57;;;;;;;16.64;7.62;;;;;;;;;;338794;156;864478;-56
2022/01/27 05:22:58;;;;;;;15.13;8.11;;;;;;;;;;338286;156;867536;-57
2022/01/27 05:24:00;;;;;;;15.49;8.24;;;;;;;;;;338505;156;867109;-57
2022/01/27 05:25:02;;;;;;;15.46;8.34;;;;;;;;;;338832;158;865091;-59
2022/01/27 05:26:04;;;;;;;17.21;7.99;;;;;;;;;;339447;156;856681;-57
2022/01/27 05:27:06;;;;;;;16.07;8.66;;;;;;;;;;337546;157;857267;-57
2022/01/27 05:28:07;;;;;;;14.87;8.04;;;;;;;;;;339113;156;865110;-56
2022/01/27 05:29:09;;;;;;;14.99;8.04;;;;;;;;;;338267;156;865328;-56
2022/01/27 05:30:11;;;;;;;14.75;7.81;;;;;;;;;;338008;156;866360;-57
2022/01/27 05:31:12;;;;;;;14.49;7.71;;;;;;;;;;338820;156;861063;-56
2022/01/27 05:32:14;;;;;;;13.53;7.69;;;;;;;;;;332790;158;865600;-56
2022/01/27 05:33:15;;;;;;;15.37;7.48;;;;;;;;;;332639;159;863293;-56
2022/01/27 05:34:17;;;;;;;14.71;7.74;;;;;;;;;;338459;156;865152;-56
2022/01/27 05:35:18;;;;;;;12.01;7.01;;;;;;;;;;337859;156;864020;-56
2022/01/27 05:36:20;;;;;;;16.03;8.29;;;;;;;;;;339165;156;859375;-56
2022/01/27 05:37:22;;;;;;;16.82;8.03;;;;;;;;;;337976;156;856594;-57
2022/01/27 05:38:24;;;;;;;14.08;7.84;;;;;;;;;;338110;156;857836;-55
2022/01/27 05:39:25;;;;;;;14.79;7.83;;;;;;;;;;339624;156;863897;-58
2022/01/27 05:40:28;;;;;;;17.99;8.95;;;;;;;;;;337969;156;861898;-56
2022/01/27 05:41:29;;;;;;;21.11;8.26;;;;;;;;;;337433;157;865115;-55
2022/01/27 05:42:31;;;;;;;24.61;12.61;;;;;;;;;;337422;158;866858;-56
2022/01/27 05:43:33;;;;;;;20.39;11.46;;;;;;;;;;337706;157;857367;-57
2022/01/27 05:44:34;;;;;;;19.59;10.66;;;;;;;;;;337641;156;865816;-56
2022/01/27 05:45:36;;;;;;;26.16;11.93;;;;;;;;;;337667;157;860138;-56
2022/01/27 05:46:37;;;;;;;20.70;10.36;;;;;;;;;;338013;156;863299;-61
2022/01/27 05:47:39;;;;;;;23.48;11.16;;;;;;;;;;338005;156;865815;-53
2022/01/27 05:48:40;;;;;;;22.35;10.94;;;;;;;;;;337884;157;864831;-56
2022/01/27 05:49:42;;;;;;;20.49;9.35;;;;;;;;;;338213;157;865170;-57
2022/01/27 05:50:44;;;;;;;22.45;10.46;;;;;;;;;;336692;153;861024;-56
2022/01/27 05:51:45;;;;;;;17.84;9.79;;;;;;;;;;339079;156;857446;-57
2022/01/27 05:52:47;;;;;;;22.44;10.76;;;;;;;;;;341234;156;864664;-56
2022/01/27 05:53:48;;;;;;;20.38;10.15;;;;;;;;;;338396;156;860234;-58
2022/01/27 05:54:50;;;;;;;21.81;11.69;;;;;;;;;;337122;156;862386;-59
2022/01/27 05:55:51;;;;;;;29.27;13.14;;;;;;;;;;338654;157;865362;-58
2022/01/27 05:56:53;;;;;;;32.01;14.34;;;;;;;;;;339100;157;863240;-58
2022/01/27 05:57:55;;;;;;;30.30;14.24;;;;;;;;;;338100;155;857466;-59
2022/01/27 05:58:56;;;;;;;29.20;14.08;;;;;;;;;;338285;156;866549;-58
2022/01/27 05:59:58;;;;;;;29.11;14.01;;;;;;;;;;339540;156;859278;-58
2022/01/27 06:00:59;;;;;;;27.66;13.49;;;;;;;;;;337465;156;865855;-58
2022/01/27 06:02:01;;;;;;;28.21;12.32;;;;;;;;;;336558;156;865013;-57
2022/01/27 06:03:03;;;;;;;25.97;13.15;;;;;;;;;;338418;157;865211;-57
2022/01/27 06:04:04;;;;;;;25.80;12.88;;;;;;;;;;339951;156;857367;-58
2022/01/27 06:05:07;;;;;;;27.84;13.40;;;;;;;;;;338464;156;861863;-58
2022/01/27 06:06:08;;;;;;;33.62;14.50;;;;;;;;;;337780;157;865100;-57
2022/01/27 06:07:11;;;;;;;31.70;14.24;;;;;;;;;;337659;156;859639;-57
2022/01/27 06:08:12;;;;;;;29.71;14.67;;;;;;;;;;339814;156;865259;-58
2022/01/27 06:09:14;;;;;;;25.54;12.93;;;;;;;;;;338199;156;858600;-58
2022/01/27 06:10:16;;;;;;;28.95;12.90;;;;;;;;;;339400;156;865102;-58
2022/01/27 06:11:18;;;;;;;27.55;12.99;;;;;;;;;;339635;156;856361;-59
2022/01/27 06:12:20;;;;;;;29.58;13.66;;;;;;;;;;338148;156;865088;-56
2022/01/27 06:13:22;;;;;;;27.99;13.73;;;;;;;;;;339801;156;856940;-58
2022/01/27 06:14:23;;;;;;;27.51;13.14;;;;;;;;;;337427;156;857628;-56
2022/01/27 06:15:25;;;;;;;28.92;13.56;;;;;;;;;;338828;156;865746;-59
2022/01/27 06:16:27;;;;;;;30.26;13.70;;;;;;;;;;337965;156;864983;-56
2022/01/27 06:17:29;;;;;;;25.87;14.05;;;;;;;;;;337945;157;857230;-56
2022/01/27 06:18:31;;;;;;;24.03;13.44;;;;;;;;;;337420;156;865097;-59
2022/01/27 06:19:32;;;;;;;26.78;13.28;;;;;;;;;;338378;156;857274;-58
2022/01/27 06:20:35;;;;;;;31.57;15.14;;;;;;;;;;338568;156;864844;-57
2022/01/27 06:21:40;;;;;;;29.13;14.74;;;;;;;;;;337306;154;864984;-57
2022/01/27 06:22:42;;;;;;;30.67;15.49;;;;;;;;;;337693;156;858145;-58
2022/01/27 06:23:44;;;;;;;30.43;15.20;;;;;;;;;;340289;157;857364;-58
2022/01/27 06:24:45;;;;;;;30.29;15.15;;;;;;;;;;334140;159;857555;-58
2022/01/27 06:25:47;;;;;;;27.96;13.67;;;;;;;;;;324533;161;865055;-58
2022/01/27 06:26:48;;;;;;;27.28;14.34;;;;;;;;;;337599;157;864954;-57
2022/01/27 06:27:50;;;;;;;24.46;12.66;;;;;;;;;;335309;157;865459;-57
2022/01/27 06:28:52;;;;;;;23.71;12.29;;;;;;;;;;337773;156;865285;-57
2022/01/27 06:29:53;;;;;;;25.75;12.65;;;;;;;;;;337711;156;863254;-57
2022/01/27 06:30:55;;;;;;;24.21;11.96;;;;;;;;;;334926;157;865376;-57
2022/01/27 06:31:56;;;;;;;22.19;12.69;;;;;;;;;;337973;157;866659;-57